Terminal Aerodrome Forecast
Issued by NWS Cleveland, OH

Home | Current Version | Previous Version | Graphics & Text | Print | Product List | Glossary On
Versions: 1 2 3 4 5 6 7 8 9 10 11 12 13 14 15 16 17 18 19 20 21
000
FTUS41 KCLE 220500
TAFYNG
TAF
KYNG 220529Z 2206/2306 12005KT P6SM SCT025 BKN250
      TEMPO 2206/2208 5SM BR BKN024
     FM220800 12005KT 5SM BR SCT020 BKN250
      TEMPO 2209/2213 2SM BR BKN020
     FM221400 14006KT P6SM SCT045 BKN120
     FM221800 14006KT P6SM BKN040
     FM222200 14008KT P6SM OVC035
     FM230200 13010KT 6SM BR VCSH OVC025=

USA.gov is the U.S. government's official web portal to all federal, state and local government web resources and services.